Time;durP1;ratioP1;P1;durP2;ratioP2;P2;SDS_P1;SDS_P2;PMS_P1;PMS_P2;Temp;Humidity;BMP_temperature;BMP_pressure;BME280_temperature;BME280_humidity;BME280_pressure;Samples;Min_cycle;Max_cycle;Signal;HPM_P1;HPM_P2
2022/09/27 00:02:24;;;;;;;66.28;39.78;;;15.90;99.90;;;;;;5093754;28;20115;-56
2022/09/27 00:04:50;;;;;;;74.88;40.53;;;15.90;99.90;;;;;;5094903;28;20162;-56
2022/09/27 00:07:16;;;;;;;68.50;38.33;;;15.90;99.90;;;;;;5097896;28;20028;-55
2022/09/27 00:09:42;;;;;;;69.22;41.08;;;15.90;99.90;;;;;;5097852;28;20039;-55
2022/09/27 00:12:09;;;;;;;94.25;50.47;;;15.90;99.90;;;;;;5097529;28;20071;-55
2022/09/27 00:14:35;;;;;;;83.68;46.72;;;15.90;99.90;;;;;;5097870;28;20530;-55
2022/09/27 00:17:00;;;;;;;82.05;44.50;;;15.90;99.90;;;;;;5097521;28;20118;-55
2022/09/27 00:19:26;;;;;;;72.93;40.67;;;15.90;99.90;;;;;;5097546;28;20028;-56
2022/09/27 00:21:52;;;;;;;76.43;41.75;;;15.80;99.90;;;;;;5097494;28;20036;-55
2022/09/27 00:24:21;;;;;;;80.80;45.58;;;15.90;99.90;;;;;;5097610;28;20039;-56
2022/09/27 00:26:48;;;;;;;74.38;43.03;;;15.80;99.90;;;;;;5097555;28;20104;-55
2022/09/27 00:29:17;;;;;;;71.25;42.13;;;15.80;99.90;;;;;;5097481;28;20012;-55
2022/09/27 00:31:44;;;;;;;72.65;42.95;;;15.80;99.90;;;;;;5097275;28;20401;-56
2022/09/27 00:34:16;;;;;;;82.82;45.40;;;15.80;99.90;;;;;;5097354;28;20028;-55
2022/09/27 00:36:42;;;;;;;78.30;44.83;;;15.70;99.90;;;;;;5097429;28;20461;-55
2022/09/27 00:39:09;;;;;;;80.07;42.38;;;15.70;99.90;;;;;;5095860;28;20051;-55
2022/09/27 00:41:36;;;;;;;73.85;40.20;;;15.70;99.90;;;;;;5097083;28;20028;-55
2022/09/27 00:44:25;;;;;;;96.38;48.80;;;15.70;99.90;;;;;;5095895;28;20386;-55
2022/09/27 00:47:12;;;;;;;99.10;47.72;;;15.70;99.90;;;;;;5097094;28;20037;-55
2022/09/27 00:49:53;;;;;;;87.85;46.10;;;15.70;99.90;;;;;;5096936;28;20362;-56
2022/09/27 00:52:35;;;;;;;96.28;47.13;;;15.70;99.90;;;;;;5095786;28;20058;-55
2022/09/27 00:55:16;;;;;;;85.35;45.55;;;15.70;99.90;;;;;;5078765;28;20032;-55
2022/09/27 00:57:43;;;;;;;;;;;15.70;99.90;;;;;;5097381;28;20119;-55
2022/09/27 01:00:12;;;;;;;84.43;43.05;;;15.70;99.90;;;;;;5096781;28;20438;-55
2022/09/27 01:02:42;;;;;;;84.47;42.70;;;15.60;99.90;;;;;;5096620;28;20031;-55
2022/09/27 01:05:10;;;;;;;71.95;38.80;;;15.60;99.90;;;;;;5096725;28;20036;-55
2022/09/27 01:07:36;;;;;;;78.35;40.50;;;15.60;99.90;;;;;;5096750;28;20500;-55
2022/09/27 01:10:04;;;;;;;83.78;40.45;;;15.60;99.90;;;;;;5095447;28;20024;-55
2022/09/27 01:12:56;;;;;;;86.28;43.33;;;15.60;99.90;;;;;;5095105;28;20075;-55
2022/09/27 01:15:31;;;;;;;81.72;42.90;;;15.60;99.90;;;;;;5096252;28;20093;-55
2022/09/27 01:17:57;;;;;;;74.93;41.95;;;15.50;99.90;;;;;;5096537;28;20509;-55
2022/09/27 01:20:58;;;;;;;71.95;41.03;;;15.50;99.90;;;;;;5095091;28;20024;-55
2022/09/27 01:23:33;;;;;;;69.67;39.67;;;15.50;99.90;;;;;;5096292;28;20020;-55
2022/09/27 01:26:13;;;;;;;64.07;36.63;;;15.50;99.90;;;;;;5094945;28;20031;-56
2022/09/27 01:29:08;;;;;;;57.40;35.47;;;15.60;99.90;;;;;;5095069;28;20063;-55
2022/09/27 01:31:40;;;;;;;60.88;36.22;;;15.60;99.90;;;;;;5094978;28;20064;-55
2022/09/27 01:34:30;;;;;;;69.38;40.92;;;15.60;99.90;;;;;;5095023;28;20435;-55
2022/09/27 01:37:08;;;;;;;70.10;40.70;;;15.60;99.90;;;;;;5094840;28;20077;-55
2022/09/27 01:39:52;;;;;;;86.72;44.67;;;15.60;99.90;;;;;;5094793;28;20140;-55
2022/09/27 01:43:05;;;;;;;73.93;40.67;;;15.70;99.90;;;;;;5090074;28;20036;-55
2022/09/27 01:45:58;;;;;;;67.80;39.22;;;15.70;99.90;;;;;;5094773;28;20024;-55
2022/09/27 01:48:46;;;;;;;69.07;39.38;;;15.70;99.90;;;;;;5095967;28;20038;-55
2022/09/27 01:51:32;;;;;;;67.78;38.90;;;15.70;99.90;;;;;;5094562;28;20029;-55
2022/09/27 01:54:03;;;;;;;73.18;41.13;;;15.70;99.90;;;;;;5095865;28;20024;-55
2022/09/27 01:56:53;;;;;;;74.45;40.85;;;15.60;99.90;;;;;;5094561;28;20115;-55
2022/09/27 01:59:40;;;;;;;85.70;43.78;;;15.70;99.90;;;;;;5094338;28;20397;-55
2022/09/27 02:02:27;;;;;;;74.28;40.17;;;15.70;99.90;;;;;;5095363;28;20047;-55
2022/09/27 02:05:19;;;;;;;82.32;43.78;;;15.70;99.90;;;;;;5066451;28;20066;-55
2022/09/27 02:07:56;;;;;;;76.25;41.63;;;15.60;99.90;;;;;;5094365;28;20496;-55
2022/09/27 02:10:27;;;;;;;73.50;40.65;;;15.60;99.90;;;;;;5094288;28;20028;-55
2022/09/27 02:13:01;;;;;;;78.25;39.42;;;15.50;99.90;;;;;;5093849;28;20056;-55
2022/09/27 02:15:39;;;;;;;85.20;43.75;;;15.60;99.90;;;;;;5095543;28;20039;-55
2022/09/27 02:18:33;;;;;;;96.80;49.08;;;15.60;99.90;;;;;;5094168;28;20112;-55
2022/09/27 02:21:03;;;;;;;88.53;46.33;;;15.70;99.90;;;;;;5094065;28;20039;-55
2022/09/27 02:23:42;;;;;;;99.85;46.47;;;15.80;99.90;;;;;;5093710;28;20405;-55
2022/09/27 02:26:26;;;;;;;98.25;44.50;;;15.80;99.90;;;;;;5093918;28;20024;-55
2022/09/27 02:29:01;;;;;;;;;;;15.80;99.90;;;;;;5093800;28;20090;-55
2022/09/27 02:31:33;;;;;;;96.30;44.95;;;15.80;99.90;;;;;;5093998;28;19908;-55
2022/09/27 02:34:04;;;;;;;100.03;44.95;;;15.70;99.90;;;;;;5093764;28;20446;-55
2022/09/27 02:36:30;;;;;;;94.95;45.00;;;15.70;99.90;;;;;;5093744;28;20085;-55
2022/09/27 02:38:56;;;;;;;83.57;43.35;;;15.80;99.90;;;;;;5094999;28;20411;-55
2022/09/27 02:41:23;;;;;;;136.45;52.15;;;15.80;99.90;;;;;;5093829;28;20031;-55
2022/09/27 02:43:54;;;;;;;102.35;47.60;;;15.80;99.90;;;;;;5093709;28;20024;-55
2022/09/27 02:46:49;;;;;;;82.93;41.75;;;15.80;99.90;;;;;;5093627;28;20027;-55
2022/09/27 02:49:57;;;;;;;86.43;41.50;;;15.80;99.90;;;;;;5093506;28;20064;-55
2022/09/27 02:53:28;;;;;;;76.13;39.43;;;15.70;99.90;;;;;;5089048;28;20040;-55
2022/09/27 02:56:02;;;;;;;64.05;37.88;;;15.80;99.90;;;;;;5093605;28;20032;-55
2022/09/27 02:59:17;;;;;;;69.40;39.05;;;15.70;99.90;;;;;;5095033;28;20504;-55
2022/09/27 03:02:18;;;;;;;72.63;37.42;;;15.80;99.90;;;;;;5086175;28;20032;-55
2022/09/27 03:05:16;;;;;;;73.80;38.13;;;15.70;99.90;;;;;;5092423;28;20117;-55
2022/09/27 03:07:43;;;;;;;77.47;41.25;;;15.70;99.90;;;;;;5093368;28;20028;-55
2022/09/27 03:10:17;;;;;;;74.88;38.55;;;15.80;99.90;;;;;;5094476;28;20024;-55
2022/09/27 03:12:43;;;;;;;76.65;38.85;;;15.70;99.90;;;;;;5093176;28;20066;-55
2022/09/27 03:15:09;;;;;;;77.97;37.65;;;15.60;99.90;;;;;;5094678;28;20038;-55
2022/09/27 03:17:55;;;;;;;73.85;38.35;;;15.70;99.90;;;;;;5087024;28;20070;-55
2022/09/27 03:20:40;;;;;;;71.97;38.65;;;15.60;99.90;;;;;;5094408;28;20058;-55
2022/09/27 03:23:15;;;;;;;69.35;37.47;;;15.70;99.90;;;;;;5093198;28;20097;-55
2022/09/27 03:25:41;;;;;;;75.85;37.72;;;15.70;99.90;;;;;;5094534;28;20024;-55
2022/09/27 03:28:09;;;;;;;78.57;40.28;;;15.70;99.90;;;;;;5094434;28;20451;-55
2022/09/27 03:30:36;;;;;;;75.22;38.70;;;15.70;99.90;;;;;;5093469;28;20077;-55
2022/09/27 03:33:03;;;;;;;70.30;37.28;;;15.70;99.90;;;;;;5093042;28;20119;-55
2022/09/27 03:35:56;;;;;;;70.38;36.63;;;15.70;99.90;;;;;;5093046;28;20524;-55
2022/09/27 03:38:22;;;;;;;67.68;35.28;;;15.60;99.90;;;;;;5093130;28;20063;-55
2022/09/27 03:40:48;;;;;;;74.20;37.83;;;15.60;99.90;;;;;;5097147;28;20031;-55
2022/09/27 03:43:15;;;;;;;80.43;40.72;;;15.70;99.90;;;;;;5097030;28;20092;-55
2022/09/27 03:45:44;;;;;;;79.07;42.42;;;15.80;99.90;;;;;;5097054;28;20024;-55
2022/09/27 03:48:11;;;;;;;72.05;38.45;;;15.70;99.90;;;;;;5097049;28;20065;-55
2022/09/27 03:50:37;;;;;;;73.97;39.65;;;15.70;99.90;;;;;;5097001;28;20028;-55
2022/09/27 03:53:03;;;;;;;77.75;40.22;;;15.70;99.90;;;;;;5096802;28;20439;-55
2022/09/27 03:55:29;;;;;;;75.20;37.72;;;15.60;99.90;;;;;;5096855;28;20483;-55
2022/09/27 03:57:55;;;;;;;71.85;37.80;;;15.60;99.90;;;;;;5096699;28;20031;-55
2022/09/27 04:00:23;;;;;;;78.05;38.38;;;15.60;99.90;;;;;;5096697;28;20039;-55
2022/09/27 04:02:49;;;;;;;72.30;38.97;;;15.60;99.90;;;;;;5098005;28;20500;-55
2022/09/27 04:05:21;;;;;;;71.53;38.10;;;15.70;99.90;;;;;;5098087;28;20031;-55
2022/09/27 04:07:48;;;;;;;72.55;37.95;;;15.60;99.90;;;;;;5096701;28;20028;-55
2022/09/27 04:10:16;;;;;;;75.13;39.60;;;15.70;99.90;;;;;;5096618;28;20028;-55
2022/09/27 04:12:43;;;;;;;71.30;36.15;;;15.60;99.90;;;;;;5096274;28;20064;-55
2022/09/27 04:15:10;;;;;;;84.45;38.75;;;15.70;99.90;;;;;;5096394;28;20032;-55
2022/09/27 04:17:49;;;;;;;83.05;37.97;;;15.60;99.90;;;;;;5097662;28;20089;-55
2022/09/27 04:20:30;;;;;;;71.30;37.17;;;15.60;99.90;;;;;;5097498;28;20086;-55
2022/09/27 04:22:57;;;;;;;80.85;38.72;;;15.50;99.90;;;;;;5096114;28;20624;-55
2022/09/27 04:25:23;;;;;;;82.50;40.88;;;15.60;99.90;;;;;;5097682;28;20055;-55
2022/09/27 04:27:53;;;;;;;80.43;39.92;;;15.60;99.90;;;;;;5096124;28;20438;-55
2022/09/27 04:30:22;;;;;;;79.82;40.50;;;15.50;99.90;;;;;;5096247;28;20031;-55
2022/09/27 04:33:11;;;;;;;69.43;37.22;;;15.60;99.90;;;;;;5077493;28;20036;-55
2022/09/27 04:38:25;;;;;;;63.28;36.55;;;15.60;99.90;;;;;;5096025;28;20031;-55
2022/09/27 04:40:51;;;;;;;78.20;40.13;;;15.60;99.90;;;;;;5095826;28;20033;-55
2022/09/27 04:43:17;;;;;;;75.80;39.42;;;15.60;99.90;;;;;;5095894;28;20088;-55
2022/09/27 04:45:43;;;;;;;88.20;42.63;;;15.70;99.90;;;;;;5097186;28;20039;-55
2022/09/27 04:48:10;;;;;;;94.85;45.60;;;15.70;99.90;;;;;;5095728;28;20488;-55
2022/09/27 04:50:39;;;;;;;95.85;47.45;;;15.70;99.90;;;;;;5095092;28;20070;-55
2022/09/27 04:53:05;;;;;;;93.90;46.95;;;15.70;99.90;;;;;;5095698;28;20393;-55
2022/09/27 04:55:31;;;;;;;89.53;42.80;;;15.80;99.90;;;;;;5095535;28;20036;-55
2022/09/27 04:58:00;;;;;;;86.45;42.88;;;15.60;99.90;;;;;;5095459;28;20029;-55
2022/09/27 05:00:27;;;;;;;77.75;40.38;;;15.60;99.90;;;;;;5095538;28;20035;-55
2022/09/27 05:03:00;;;;;;;83.43;43.50;;;15.60;99.90;;;;;;5095375;28;20024;-55
2022/09/27 05:05:40;;;;;;;93.28;43.60;;;15.70;99.90;;;;;;5095378;28;20431;-55
2022/09/27 05:08:06;;;;;;;76.13;39.78;;;15.60;99.90;;;;;;5095251;28;20032;-55
2022/09/27 05:10:53;;;;;;;77.53;41.40;;;15.70;99.90;;;;;;5096321;28;20056;-55
2022/09/27 05:13:20;;;;;;;76.80;40.50;;;15.70;99.90;;;;;;5095187;28;20044;-55
2022/09/27 05:15:46;;;;;;;73.85;38.65;;;15.60;99.90;;;;;;5095314;28;20032;-55
2022/09/27 05:18:30;;;;;;;83.90;38.15;;;15.70;99.90;;;;;;5096064;28;20397;-55
2022/09/27 05:21:20;;;;;;;66.63;35.45;;;15.70;99.90;;;;;;5060891;28;20044;-55
2022/09/27 05:23:46;;;;;;;64.32;34.70;;;15.70;99.90;;;;;;5075085;28;20094;-55
2022/09/27 05:26:12;;;;;;;67.30;35.30;;;15.60;99.90;;;;;;5074619;28;20028;-55
2022/09/27 05:28:38;;;;;;;75.18;35.13;;;15.70;99.90;;;;;;5076658;28;20040;-55
2022/09/27 05:31:04;;;;;;;70.80;35.05;;;15.70;99.90;;;;;;5074629;28;20020;-55
2022/09/27 05:33:32;;;;;;;57.42;31.58;;;15.50;99.90;;;;;;5069274;28;20036;-55
2022/09/27 05:36:17;;;;;;;60.22;31.30;;;15.50;99.90;;;;;;5075364;28;20317;-55
2022/09/27 05:38:44;;;;;;;58.50;31.05;;;15.50;99.90;;;;;;5074241;28;20447;-55
2022/09/27 05:41:09;;;;;;;57.22;31.48;;;15.60;99.90;;;;;;5074420;28;20039;-55
2022/09/27 05:43:36;;;;;;;59.28;32.13;;;15.60;99.90;;;;;;5074091;28;20028;-55
2022/09/27 05:46:03;;;;;;;62.72;32.20;;;15.60;99.90;;;;;;5074190;28;20028;-55
2022/09/27 05:48:30;;;;;;;53.95;31.10;;;15.70;99.90;;;;;;5073964;28;20020;-55
2022/09/27 05:51:04;;;;;;;58.92;32.53;;;15.70;99.90;;;;;;5074108;28;20074;-55
2022/09/27 05:53:32;;;;;;;54.20;30.67;;;15.70;99.90;;;;;;5068806;28;20038;-55
2022/09/27 05:56:04;;;;;;;55.65;29.42;;;15.80;99.90;;;;;;5072309;28;20132;-55
2022/09/27 05:58:54;;;;;;;55.13;30.70;;;15.80;99.90;;;;;;5058752;28;20094;-55
2022/09/27 06:01:20;;;;;;;61.45;30.45;;;15.80;99.90;;;;;;5073041;28;20051;-55
2022/09/27 06:04:06;;;;;;;51.63;27.67;;;15.70;99.90;;;;;;5062841;28;20410;-55
2022/09/27 06:06:59;;;;;;;59.90;30.00;;;15.80;99.90;;;;;;5067731;28;20032;-55
2022/09/27 06:09:26;;;;;;;56.80;29.33;;;15.60;99.90;;;;;;5073569;28;20047;-55
2022/09/27 06:11:52;;;;;;;65.38;32.78;;;15.70;99.90;;;;;;5074596;28;20106;-56
2022/09/27 06:14:19;;;;;;;65.55;32.92;;;15.70;99.90;;;;;;5073481;28;20082;-55
2022/09/27 06:16:58;;;;;;;63.95;31.55;;;15.70;99.90;;;;;;5058357;28;20064;-55
2022/09/27 06:19:27;;;;;;;45.40;28.77;;;15.80;99.90;;;;;;5053599;28;20033;-55
2022/09/27 06:21:53;;;;;;;53.58;32.83;;;15.90;99.90;;;;;;5068239;28;20469;-55
2022/09/27 06:24:19;;;;;;;52.95;32.88;;;16.10;99.90;;;;;;5073331;28;20047;-55
2022/09/27 06:26:45;;;;;;;55.97;33.72;;;16.20;99.90;;;;;;5073576;28;20481;-55
2022/09/27 06:29:26;;;;;;;58.55;34.50;;;16.40;99.90;;;;;;5073292;28;20116;-55
2022/09/27 06:31:58;;;;;;;59.20;33.63;;;16.60;99.90;;;;;;5073425;28;20493;-55
2022/09/27 06:34:32;;;;;;;55.00;31.60;;;16.70;99.90;;;;;;5073391;28;20174;-55
2022/09/27 06:36:58;;;;;;;58.03;31.85;;;17.10;99.90;;;;;;5073140;28;20398;-56
2022/09/27 06:39:26;;;;;;;52.28;31.45;;;17.30;99.90;;;;;;5073135;28;20037;-55
2022/09/27 06:42:12;;;;;;;61.50;32.38;;;17.30;99.90;;;;;;5078601;28;20085;-55
2022/09/27 06:45:03;;;;;;;54.60;30.55;;;17.30;99.90;;;;;;5072545;28;20027;-55
2022/09/27 06:48:06;;;;;;;53.95;29.92;;;17.30;99.90;;;;;;5012143;28;20403;-55
2022/09/27 06:50:40;;;;;;;62.28;32.58;;;17.30;99.90;;;;;;5064932;28;20036;-55
2022/09/27 06:53:09;;;;;;;49.08;31.00;;;17.30;99.90;;;;;;5072867;28;20029;-55
2022/09/27 06:55:36;;;;;;;48.17;29.33;;;17.20;99.90;;;;;;5073148;28;20393;-55
2022/09/27 07:01:09;;;;;;;47.33;29.60;;;17.10;99.90;;;;;;5073991;28;20531;-55
2022/09/27 07:03:54;;;;;;;49.88;30.80;;;17.00;99.90;;;;;;5074803;28;20044;-55
2022/09/27 07:06:39;;;;;;;54.03;29.52;;;17.00;99.90;;;;;;5073565;28;20028;-55
2022/09/27 07:09:16;;;;;;;47.65;29.45;;;17.10;99.90;;;;;;5073810;28;20060;-55
2022/09/27 07:11:44;;;;;;;50.88;29.40;;;17.20;99.90;;;;;;5073203;28;20083;-55
2022/09/27 07:14:11;;;;;;;57.95;30.02;;;17.30;99.90;;;;;;5072593;28;20036;-55
2022/09/27 07:16:37;;;;;;;61.05;32.72;;;17.30;99.90;;;;;;5069806;28;20028;-55
2022/09/27 07:19:06;;;;;;;54.30;31.30;;;17.30;99.90;;;;;;5073391;28;20051;-55
2022/09/27 07:21:33;;;;;;;50.92;30.98;;;17.40;99.90;;;;;;5072947;28;20101;-55
2022/09/27 07:23:59;;;;;;;53.30;32.50;;;17.40;99.90;;;;;;5071921;28;20028;-55
2022/09/27 07:26:27;;;;;;;55.22;33.22;;;17.40;99.90;;;;;;5072303;28;20550;-55
2022/09/27 07:28:53;;;;;;;66.72;35.35;;;17.30;99.90;;;;;;5072541;28;20111;-55
2022/09/27 07:31:21;;;;;;;62.17;35.55;;;17.50;99.90;;;;;;5072743;28;20139;-55
2022/09/27 07:33:47;;;;;;;60.92;35.08;;;17.40;99.90;;;;;;5073849;28;20024;-55
2022/09/27 07:36:13;;;;;;;65.55;36.67;;;17.50;99.90;;;;;;5072771;28;20027;-55
2022/09/27 07:38:42;;;;;;;73.45;38.17;;;17.50;99.90;;;;;;5073201;28;20037;-55
2022/09/27 07:41:12;;;;;;;68.15;34.83;;;17.70;99.90;;;;;;5072875;28;20032;-55
2022/09/27 07:43:38;;;;;;;62.40;31.05;;;17.90;99.90;;;;;;5072959;28;20069;-55
2022/09/27 07:46:04;;;;;;;43.72;25.55;;;18.10;99.90;;;;;;5074716;28;20048;-55
2022/09/27 07:48:51;;;;;;;53.28;27.08;;;18.20;99.90;;;;;;5073923;28;20040;-55
2022/09/27 07:51:52;;;;;;;44.65;27.13;;;18.30;99.90;;;;;;5031873;28;20033;-55
2022/09/27 07:54:40;;;;;;;48.55;25.80;;;18.30;99.90;;;;;;5070804;28;20037;-55
2022/09/27 07:57:22;;;;;;;39.75;23.40;;;18.30;99.90;;;;;;5073103;28;20025;-55
2022/09/27 07:59:51;;;;;;;34.55;21.73;;;18.00;99.90;;;;;;5073113;28;20020;-55
2022/09/27 08:02:20;;;;;;;41.60;23.60;;;17.90;99.90;;;;;;5073081;28;20033;-55
2022/09/27 08:04:47;;;;;;;52.70;30.90;;;17.80;99.90;;;;;;5072955;28;20075;-55
2022/09/27 08:07:14;;;;;;;38.97;26.52;;;17.90;99.90;;;;;;5072907;28;20028;-56
2022/09/27 08:09:42;;;;;;;29.50;19.88;;;18.00;99.90;;;;;;5073000;28;20082;-55
2022/09/27 08:12:09;;;;;;;45.42;21.45;;;18.00;99.90;;;;;;5073956;28;20048;-55
2022/09/27 08:14:35;;;;;;;31.95;21.27;;;18.10;99.90;;;;;;5073158;28;20029;-55
2022/09/27 08:17:01;;;;;;;32.38;19.73;;;18.30;99.90;;;;;;5074389;28;20107;-55
2022/09/27 08:19:28;;;;;;;31.35;18.45;;;18.50;99.90;;;;;;5074200;28;20064;-55
2022/09/27 08:22:20;;;;;;;40.13;17.80;;;18.60;99.90;;;;;;5071860;28;20028;-55
2022/09/27 08:24:59;;;;;;;36.58;18.77;;;19.10;99.90;;;;;;5065026;28;20029;-55
2022/09/27 08:27:42;;;;;;;42.75;18.13;;;19.30;99.90;;;;;;5065032;28;20035;-55
2022/09/27 08:30:31;;;;;;;45.00;20.02;;;19.50;99.90;;;;;;5056629;28;20546;-55
2022/09/27 08:33:02;;;;;;;45.30;18.63;;;19.70;99.90;;;;;;5068765;28;20059;-56
2022/09/27 08:35:30;;;;;;;42.35;18.35;;;19.90;99.90;;;;;;5076217;28;20071;-55
2022/09/27 08:38:01;;;;;;;31.58;15.70;;;19.90;99.90;;;;;;5075262;28;20096;-55
2022/09/27 08:40:44;;;;;;;27.48;15.07;;;20.10;99.90;;;;;;5077162;28;20123;-55
2022/09/27 08:43:20;;;;;;;30.80;18.42;;;20.20;99.90;;;;;;5070391;28;20036;-55
2022/09/27 08:46:12;;;;;;;30.52;15.90;;;20.10;99.90;;;;;;5075210;28;20028;-55
2022/09/27 08:48:39;;;;;;;30.08;15.80;;;20.10;99.90;;;;;;5066397;28;20017;-55
2022/09/27 08:51:10;;;;;;;27.33;16.00;;;20.10;99.90;;;;;;5075482;28;20016;-55
2022/09/27 08:53:41;;;;;;;;;;;19.90;99.90;;;;;;5074362;28;20048;-55
2022/09/27 08:56:10;;;;;;;28.20;16.10;;;19.90;99.90;;;;;;5064544;28;19965;-55
2022/09/27 08:58:51;;;;;;;36.50;16.92;;;20.00;99.90;;;;;;5071213;28;20044;-55
2022/09/27 09:01:22;;;;;;;29.20;16.47;;;19.80;99.90;;;;;;5072202;28;20055;-55
2022/09/27 09:04:42;;;;;;;51.83;22.00;;;19.80;99.90;;;;;;5062275;28;20393;-55
2022/09/27 09:08:02;;;;;;;50.47;22.85;;;19.70;99.90;;;;;;5071648;28;20127;-55
2022/09/27 09:13:26;;;;;;;32.97;19.48;;;19.60;99.90;;;;;;4997193;28;20120;-55
2022/09/27 09:16:27;;;;;;;39.78;20.73;;;19.50;99.90;;;;;;4997463;28;20056;-56
2022/09/27 09:18:56;;;;;;;45.03;21.58;;;19.50;99.90;;;;;;4954853;28;20145;-56
2022/09/27 09:22:18;;;;;;;39.88;19.55;;;19.60;99.90;;;;;;5008200;28;20103;-55
2022/09/27 09:24:59;;;;;;;45.60;20.02;;;19.70;99.90;;;;;;4996845;28;20622;-55
2022/09/27 09:27:40;;;;;;;;;;;19.60;99.90;;;;;;4997653;28;20026;-55
2022/09/27 09:30:09;;;;;;;48.35;20.75;;;19.70;99.90;;;;;;4997087;28;19920;-56
2022/09/27 09:32:58;;;;;;;44.85;19.38;;;19.60;99.90;;;;;;4997289;28;20165;-56
2022/09/27 09:35:31;;;;;;;43.58;18.05;;;19.50;99.90;;;;;;4997069;28;20030;-55
2022/09/27 09:38:01;;;;;;;40.00;18.48;;;19.60;99.90;;;;;;5013107;28;20077;-55
2022/09/27 09:40:34;;;;;;;25.30;15.18;;;19.60;99.90;;;;;;5013179;28;20030;-55
2022/09/27 09:43:44;;;;;;;25.13;14.60;;;19.40;99.90;;;;;;5014400;28;20172;-56
2022/09/27 09:46:39;;;;;;;20.77;13.98;;;19.40;99.90;;;;;;5052757;28;20041;-56
2022/09/27 09:49:19;;;;;;;26.70;17.08;;;19.30;99.90;;;;;;5065529;28;20132;-56
2022/09/27 09:51:55;;;;;;;29.87;17.53;;;19.20;99.90;;;;;;5072773;28;20024;-55
2022/09/27 09:54:45;;;;;;;106.53;38.10;;;19.00;99.90;;;;;;5073534;28;20060;-56
2022/09/27 09:57:24;;;;;;;154.70;50.83;;;18.80;99.90;;;;;;5073911;28;20393;-56
2022/09/27 10:00:13;;;;;;;187.85;58.70;;;18.60;99.90;;;;;;5071843;28;20028;-56
2022/09/27 10:02:43;;;;;;;147.88;49.70;;;18.40;99.90;;;;;;5065258;28;20085;-57
2022/09/27 10:05:26;;;;;;;161.40;54.90;;;18.20;99.90;;;;;;5053674;28;20048;-57
2022/09/27 10:08:03;;;;;;;175.98;59.15;;;18.10;99.90;;;;;;5052794;28;20090;-57
2022/09/27 10:10:29;;;;;;;171.02;56.10;;;17.90;99.90;;;;;;5053717;28;20090;-56
2022/09/27 10:13:22;;;;;;;166.48;58.13;;;17.70;99.90;;;;;;5054304;28;20037;-56
2022/09/27 10:16:01;;;;;;;147.60;55.55;;;17.50;99.90;;;;;;5053808;28;20435;-56
2022/09/27 10:18:28;;;;;;;149.75;54.60;;;17.40;99.90;;;;;;5053603;28;20032;-57
2022/09/27 10:21:03;;;;;;;149.60;54.83;;;17.30;99.90;;;;;;5060147;28;20059;-57
2022/09/27 10:23:29;;;;;;;144.98;53.45;;;17.30;99.90;;;;;;5074724;28;20541;-56
2022/09/27 10:26:18;;;;;;;147.40;54.13;;;17.20;99.90;;;;;;5068798;28;20099;-57
2022/09/27 10:28:49;;;;;;;135.68;53.92;;;17.20;99.90;;;;;;5073538;28;20427;-56
2022/09/27 10:31:21;;;;;;;138.48;52.75;;;17.10;99.90;;;;;;5073431;28;20035;-56
2022/09/27 10:34:01;;;;;;;124.63;51.42;;;17.10;99.90;;;;;;5073068;28;20040;-56
2022/09/27 10:36:35;;;;;;;117.35;47.05;;;17.10;99.90;;;;;;5073280;28;20393;-56
2022/09/27 10:39:05;;;;;;;115.32;45.10;;;17.10;99.90;;;;;;5074577;28;20470;-56
2022/09/27 10:41:40;;;;;;;102.82;40.80;;;17.10;99.90;;;;;;5072988;28;20032;-56
2022/09/27 10:44:19;;;;;;;115.22;47.53;;;17.00;99.90;;;;;;5073218;28;20036;-56
2022/09/27 10:46:52;;;;;;;98.05;41.25;;;17.00;99.90;;;;;;5073359;28;20032;-56
2022/09/27 10:49:40;;;;;;;97.78;38.83;;;16.90;99.90;;;;;;5073270;28;20518;-56
2022/09/27 10:52:23;;;;;;;89.93;37.90;;;16.90;99.90;;;;;;5073192;28;20028;-56
2022/09/27 10:55:00;;;;;;;83.07;36.58;;;16.90;99.90;;;;;;5073039;28;20032;-56
2022/09/27 10:57:30;;;;;;;84.20;36.20;;;16.90;99.90;;;;;;5073003;28;20028;-56
2022/09/27 11:00:02;;;;;;;74.80;33.47;;;17.00;99.90;;;;;;5072798;28;20735;-56
2022/09/27 11:02:34;;;;;;;70.97;33.58;;;16.90;99.90;;;;;;5072647;28;20478;-56
2022/09/27 11:05:11;;;;;;;68.13;31.00;;;16.80;99.90;;;;;;5072899;28;20028;-56
2022/09/27 11:07:52;;;;;;;64.90;28.65;;;16.90;99.90;;;;;;5073016;28;20050;-56
2022/09/27 11:10:23;;;;;;;60.90;25.30;;;16.70;99.90;;;;;;5073520;28;20032;-56
2022/09/27 11:13:12;;;;;;;62.72;29.52;;;16.90;99.90;;;;;;5073416;28;20139;-56
2022/09/27 11:15:54;;;;;;;71.50;32.42;;;17.00;99.90;;;;;;5073551;28;20033;-56
2022/09/27 11:18:27;;;;;;;69.68;33.47;;;17.20;99.90;;;;;;5073685;28;20078;-56
2022/09/27 11:21:18;;;;;;;70.82;32.35;;;17.30;99.90;;;;;;5073369;28;20036;-56
2022/09/27 11:24:22;;;;;;;68.97;34.03;;;17.50;99.90;;;;;;5073985;28;20186;-56
2022/09/27 11:27:01;;;;;;;79.43;36.03;;;17.70;99.90;;;;;;5052857;28;20036;-56
2022/09/27 11:29:46;;;;;;;73.40;28.33;;;18.00;99.90;;;;;;5052803;28;20075;-56
2022/09/27 11:33:04;;;;;;;55.55;27.85;;;18.10;99.90;;;;;;5052311;28;20040;-56
2022/09/27 11:35:36;;;;;;;56.50;27.00;;;18.00;99.90;;;;;;5052736;28;20393;-56
2022/09/27 11:38:24;;;;;;;53.55;27.30;;;18.30;99.90;;;;;;5052472;28;20041;-56
2022/09/27 11:40:59;;;;;;;52.90;28.27;;;18.60;99.90;;;;;;5052612;28;20045;-56
2022/09/27 11:43:45;;;;;;;51.00;25.20;;;18.90;99.90;;;;;;5052450;28;20059;-56
2022/09/27 11:46:34;;;;;;;52.25;25.45;;;19.40;99.90;;;;;;5063718;28;20115;-56
2022/09/27 11:49:28;;;;;;;45.25;22.88;;;20.10;99.90;;;;;;5052267;28;20467;-56
2022/09/27 11:52:22;;;;;;;39.38;20.05;;;20.60;99.90;;;;;;5052098;28;20029;-56
2022/09/27 11:55:04;;;;;;;34.13;16.90;;;21.20;99.90;;;;;;5053738;28;20113;-56
2022/09/27 11:57:47;;;;;;;27.73;13.50;;;21.80;99.90;;;;;;5052367;28;20091;-56
2022/09/27 12:00:32;;;;;;;23.17;12.48;;;22.20;99.90;;;;;;5052108;28;20029;-56
2022/09/27 12:03:19;;;;;;;23.02;10.82;;;22.70;99.90;;;;;;5055888;28;20029;-56
2022/09/27 12:05:56;;;;;;;25.92;13.05;;;23.50;95.90;;;;;;5056134;28;20057;-56
2022/09/27 12:08:30;;;;;;;22.60;11.32;;;22.90;97.70;;;;;;5056264;28;20478;-56
2022/09/27 12:11:09;;;;;;;18.50;11.73;;;22.80;98.20;;;;;;5055765;28;20087;-55
2022/09/27 12:13:55;;;;;;;23.13;12.05;;;23.50;96.30;;;;;;5055957;28;20041;-56
2022/09/27 12:16:22;;;;;;;23.48;12.57;;;23.80;95.30;;;;;;5067814;28;20040;-56
2022/09/27 12:18:51;;;;;;;23.20;11.32;;;23.80;95.70;;;;;;5067976;28;20037;-56
2022/09/27 12:21:37;;;;;;;24.08;11.52;;;24.30;93.40;;;;;;5072772;28;20549;-56
2022/09/27 12:24:03;;;;;;;23.98;11.98;;;23.70;92.90;;;;;;5077152;28;20035;-56
2022/09/27 12:26:36;;;;;;;;;;;23.30;93.50;;;;;;5096332;28;20083;-56
2022/09/27 12:29:21;;;;;;;19.30;10.07;;;22.70;94.80;;;;;;5095915;28;19907;-56
2022/09/27 12:32:15;;;;;;;16.45;9.70;;;22.30;93.60;;;;;;5095963;28;20405;-56
2022/09/27 12:35:10;;;;;;;17.45;10.15;;;22.00;94.90;;;;;;5066557;28;20339;-56
2022/09/27 12:37:58;;;;;;;18.52;9.18;;;22.10;95.60;;;;;;5056275;28;20025;-56
2022/09/27 12:40:27;;;;;;;11.40;7.03;;;22.50;95.00;;;;;;5056164;28;20044;-56
2022/09/27 12:43:11;;;;;;;11.57;7.15;;;22.70;92.30;;;;;;5056232;28;20051;-56
2022/09/27 12:46:06;;;;;;;15.02;7.22;;;22.90;91.90;;;;;;5067818;28;20029;-56
2022/09/27 12:48:42;;;;;;;13.05;7.40;;;22.70;91.70;;;;;;5075048;28;20115;-56
2022/09/27 12:51:09;;;;;;;16.85;7.38;;;22.60;93.80;;;;;;5075435;28;20492;-56
2022/09/27 12:53:55;;;;;;;22.65;8.75;;;22.30;91.70;;;;;;5075212;28;20025;-56
2022/09/27 12:56:24;;;;;;;10.68;6.93;;;22.80;94.20;;;;;;5075232;28;20028;-56
2022/09/27 12:59:01;;;;;;;15.05;8.20;;;22.80;91.40;;;;;;5075169;28;20029;-56
2022/09/27 13:01:48;;;;;;;17.13;7.85;;;22.90;90.90;;;;;;5066087;28;20032;-56
2022/09/27 13:04:30;;;;;;;19.45;7.93;;;22.50;91.00;;;;;;5055819;28;20272;-56
2022/09/27 13:07:10;;;;;;;13.02;7.53;;;21.90;92.20;;;;;;5056034;28;20021;-56
2022/09/27 13:10:04;;;;;;;23.45;10.93;;;21.60;94.80;;;;;;5054906;28;20087;-56
2022/09/27 13:12:33;;;;;;;33.10;12.18;;;21.60;97.40;;;;;;5076292;28;20119;-56
2022/09/27 13:15:13;;;;;;;23.48;11.45;;;21.50;99.50;;;;;;5080435;28;20031;-55
2022/09/27 13:17:39;;;;;;;26.67;12.32;;;21.50;99.90;;;;;;5075915;28;20036;-56
2022/09/27 13:20:26;;;;;;;24.42;12.52;;;21.60;99.90;;;;;;5074550;28;20039;-56
2022/09/27 13:22:54;;;;;;;24.27;12.35;;;22.10;99.90;;;;;;5074850;28;20032;-55
2022/09/27 13:26:02;;;;;;;17.55;10.45;;;22.50;99.90;;;;;;5088968;28;20028;-55